Aérodrome :
LOGIN :

S'inscrire | Disclaimer

   EN    FR    IT 

 










Légende :    VFR   VFR Marginal   IFR   IFR Intensif   IFR Très Intensif
Visi : 
Plafond : 
>= 8 km
>= 3000ft
5 à 8 km
1000 à 3000 ft
1500m à 5 km
500 à 1000 ft
800 à 1500m
200 à 500 ft
< 800m
< 200 ft
Symboles :   Orages  Brouillard  Fortes neiges  Fortes précipitations  Vent > 20 kt
SIGMETs :   Divers  Orages  Givrage  Turbulence  Onde Orograph.  Cendres Volcan.






- Altitude de l'aérodrome : 297 ft


EGVP - Middle Wallop

DERNIER METAR :
  • 251321Z 34008KT 9999 BKN007 OVC008 09/08 Q1013 NOSIG RMK GRN GRN

METARs EXPIRÉS :
  • 251250Z 33007KT 9999 FEW007 BKN009 09/08 Q1012 NOSIG RMK GRN GRN
  • 251220Z 31008KT 9999 -DZ BKN006 10/09 Q1012 BECMG BKN008 RMK YLO1 BECMG GRN
  • 251150Z 28005KT 9999 -DZ FEW005 BKN006 10/10 Q1012 BECMG SCT007 RMK YLO1 BECMG GRN
  • 251141Z 28007KT 9999 BKN006 10/10 Q1011 BECMG SCT007 RMK YLO1 BECMG GRN
  • 251120Z 28007KT 9999 7000NW -DZ BKN006 10/10 Q1011 BECMG 9999 NSW SCT007 RMK YLO1 BECMG GRN
  • 251109Z 28007KT 7000 -DZ BKN006 10/09 Q1011 BECMG 9999 NSW SCT007 RMK YLO1 BECMG GRN
  • 251050Z 28007KT 9999 FEW007 BKN008 10/09 Q1011 TEMPO 5000 -DZ SCT006 RMK GRN TEMPO YLO1

TAF TAF EGVP
Valide du 25 à 12h jusqu'au 25 à 21h UTC


251222Z 2512/2521 32007KT 9999 SCT015
TEMPO 2512/2514 SCT006
PROB30
TEMPO 2513/2515 FEW015
BECMG 2515/2517 FEW020
ATIS : +44 1980 674 142



MET'MAP, la Météo Aéronautique d'un coup d'oeil ! - Copyright ORBIFLY Décembre 2007 - Disclaimer

ORBIFLY MET'MAP TEAM :

Programmation & Développement : Alexandra Zaïnal
Sur une idée originale de : Baudouin d'Aumeries
Assistance à la programmation : Marc-Olivier Méhu
Soutien technique & logistique : Manuel Goepfert

Contact : metmap@orbifly.com




SOURCES & CREDITS :

   NOAA